ESSB

Stockholm-Bromma Airport

Stockholm, Sweden
TAF ESSB 251430Z 2515/2520 25013KT CAVOK
Issued Valid From Valid To
Sep-25 @ 14:30 UTC
(3 hours ago)
Sep-25 @ 15:00 UTC
(2 hours ago)
Sep-25 @ 20:00 UTC
(in 3 hours)
Sep-25 @ 15:00 to Sep-25 @ 20:00
TAF ESSB 251430Z 2515/2520 25013KT CAVOK
Wind Visibility Clouds Conditions
250° at 13 knots 10,000+ meters
  • No significant clouds
TAF ESSB 251430Z 2515/2520 25013KT CAVOK
Issued Sep-25 @ 14:30 UTC
(3 hours ago)
Valid From Sep-25 @ 15:00 UTC
(2 hours ago)
Valid To Sep-25 @ 20:00 UTC
(in 3 hours)
Sep-25 @ 15:00 - Sep-25 @ 20:00
Wind Visibility
250° at 13 knots 10,000+ meters
Clouds
  • No significant clouds
Conditions